Time;durP1;ratioP1;P1;durP2;ratioP2;P2;SDS_P1;SDS_P2;PMS_P1;PMS_P2;Temp;Humidity;BMP_temperature;BMP_pressure;BME280_temperature;BME280_humidity;BME280_pressure;Samples;Min_cycle;Max_cycle;Signal;HPM_P1;HPM_P2
2023/06/29 00:01:56;0.00;0.00;0.62;0.00;0.00;0.62;2.30;1.60;;;32.20;24.10;;;;;;2237514;62;20370;-63
2023/06/29 00:04:41;0.00;0.00;0.62;0.00;0.00;0.62;1.87;1.33;;;32.20;24.10;;;;;;2237752;62;20417;-63
2023/06/29 00:07:26;0.00;0.00;0.62;0.00;0.00;0.62;2.10;1.73;;;32.30;24.20;;;;;;2236882;62;20811;-63
2023/06/29 00:10:11;0.00;0.00;0.62;0.00;0.00;0.62;2.03;1.73;;;32.30;24.20;;;;;;2237294;61;20781;-63
2023/06/29 00:12:55;0.00;0.00;0.62;0.00;0.00;0.62;2.60;1.90;;;32.20;24.20;;;;;;2237747;62;20383;-63
2023/06/29 00:15:40;0.00;0.00;0.62;0.00;0.00;0.62;2.47;1.80;;;32.30;24.20;;;;;;2237157;62;20414;-64
2023/06/29 00:18:30;0.00;0.00;0.62;0.00;0.00;0.62;1.70;1.50;;;32.20;24.20;;;;;;2237185;62;20366;-63
2023/06/29 00:21:15;0.00;0.00;0.62;0.00;0.00;0.62;2.53;1.70;;;32.20;24.20;;;;;;2236852;62;20402;-63
2023/06/29 00:24:02;0.00;0.00;0.62;0.00;0.00;0.62;1.90;1.60;;;32.30;24.20;;;;;;2237210;62;20397;-62
2023/06/29 00:26:47;0.00;0.00;0.62;0.00;0.00;0.62;3.30;1.50;;;32.20;24.20;;;;;;2237819;62;20446;-64
2023/06/29 00:29:32;0.00;0.00;0.62;0.00;0.00;0.62;2.03;1.53;;;32.30;24.20;;;;;;2236683;62;20382;-63
2023/06/29 00:32:17;0.00;0.00;0.62;0.00;0.00;0.62;2.13;1.50;;;32.20;24.20;;;;;;2234793;62;20384;-63
2023/06/29 00:35:05;0.00;0.00;0.62;0.00;0.00;0.62;2.30;1.73;;;32.20;24.20;;;;;;2234472;62;20377;-63
2023/06/29 00:37:50;0.00;0.00;0.62;0.00;0.00;0.62;1.70;1.53;;;32.20;24.20;;;;;;2236968;62;20390;-64
2023/06/29 00:40:35;0.00;0.00;0.62;0.00;0.00;0.62;2.20;1.60;;;32.20;24.20;;;;;;2237494;62;20413;-64
2023/06/29 00:43:20;0.00;0.00;0.62;0.00;0.00;0.62;2.17;1.60;;;32.20;24.20;;;;;;2236726;62;20394;-63
2023/06/29 00:46:08;0.00;0.00;0.62;0.00;0.00;0.62;1.87;1.57;;;32.20;24.20;;;;;;2234381;62;20370;-64
2023/06/29 00:48:53;0.00;0.00;0.62;0.00;0.00;0.62;1.80;1.50;;;32.20;24.20;;;;;;2234001;62;20768;-64
2023/06/29 00:51:40;0.00;0.00;0.62;0.00;0.00;0.62;2.30;2.00;;;32.20;24.20;;;;;;2233509;62;20466;-63
2023/06/29 00:54:25;0.00;0.00;0.62;0.00;0.00;0.62;1.80;1.40;;;32.20;24.20;;;;;;2237414;62;20429;-62
2023/06/29 00:57:10;0.00;0.00;0.62;0.00;0.00;0.62;2.53;1.40;;;32.20;24.20;;;;;;2237703;62;20409;-63
2023/06/29 00:59:59;0.00;0.00;0.62;0.00;0.00;0.62;1.60;1.40;;;32.20;24.20;;;;;;2236281;62;20798;-62
2023/06/29 01:02:44;0.00;0.00;0.62;0.00;0.00;0.62;2.03;1.60;;;32.20;24.30;;;;;;2237194;62;20927;-64
2023/06/29 01:05:34;0.00;0.00;0.62;0.00;0.00;0.62;1.80;1.60;;;32.20;24.20;;;;;;2236587;62;20426;-63
2023/06/29 01:08:27;0.00;0.00;0.62;0.00;0.00;0.62;2.10;1.73;;;32.20;24.20;;;;;;2237080;62;20399;-63
2023/06/29 01:11:13;0.00;0.00;0.62;0.00;0.00;0.62;2.43;1.70;;;32.20;24.20;;;;;;2237627;62;20378;-65
2023/06/29 01:14:01;0.00;0.00;0.62;0.00;0.00;0.62;2.23;1.90;;;32.20;24.20;;;;;;2236201;62;20435;-62
2023/06/29 01:16:47;0.00;0.00;0.62;0.00;0.00;0.62;2.40;1.80;;;32.20;24.20;;;;;;2237707;62;20451;-63
2023/06/29 01:19:33;0.00;0.00;0.62;0.00;0.00;0.62;1.90;1.70;;;32.20;24.30;;;;;;2237042;62;20414;-63
2023/06/29 01:22:21;0.00;0.00;0.62;0.00;0.00;0.62;2.00;1.80;;;32.20;24.30;;;;;;2233398;62;20423;-62
2023/06/29 01:25:08;0.00;0.00;0.62;0.00;0.00;0.62;2.00;1.77;;;32.20;24.30;;;;;;2237128;62;20370;-63
2023/06/29 01:27:53;0.00;0.00;0.62;0.00;0.00;0.62;2.37;1.53;;;32.20;24.30;;;;;;2233163;62;20418;-63
2023/06/29 01:30:45;0.00;0.00;0.62;0.00;0.00;0.62;2.37;1.80;;;32.20;24.30;;;;;;2234143;62;20378;-68
2023/06/29 01:33:30;0.00;0.00;0.62;0.00;0.00;0.62;2.43;1.90;;;32.10;24.20;;;;;;2237318;62;20517;-64
2023/06/29 01:36:24;0.00;0.00;0.62;0.00;0.00;0.62;2.57;1.80;;;32.20;24.30;;;;;;2236531;62;20940;-64
2023/06/29 01:39:25;0.00;0.00;0.62;0.00;0.00;0.62;2.40;2.20;;;32.20;24.30;;;;;;2233778;62;20391;-64
2023/06/29 01:42:13;0.00;0.00;0.62;0.00;0.00;0.62;2.00;1.80;;;32.10;24.30;;;;;;2237156;62;20369;-64
2023/06/29 01:44:58;0.00;0.00;0.62;0.00;0.00;0.62;2.03;1.83;;;32.10;24.30;;;;;;2237740;62;20426;-64
2023/06/29 01:47:43;0.00;0.00;0.62;0.00;0.00;0.62;2.10;1.87;;;32.10;24.30;;;;;;2237264;62;20810;-68
2023/06/29 01:50:29;0.00;0.00;0.62;0.00;0.00;0.62;2.27;1.90;;;32.10;24.30;;;;;;2232832;62;20370;-63
2023/06/29 01:53:14;0.00;0.00;0.62;0.00;0.00;0.62;2.03;1.80;;;32.10;24.30;;;;;;2234099;62;20790;-64
2023/06/29 01:55:59;0.00;0.00;0.62;0.00;0.00;0.62;2.30;1.83;;;32.10;24.30;;;;;;2237184;62;20363;-63
2023/06/29 01:58:45;0.00;0.00;0.62;0.00;0.00;0.62;2.23;1.97;;;32.10;24.30;;;;;;2232738;62;20375;-64
2023/06/29 02:01:30;0.00;0.00;0.62;0.00;0.00;0.62;2.00;1.80;;;32.10;24.30;;;;;;2237291;62;20374;-64
2023/06/29 02:04:15;0.00;0.00;0.62;0.00;0.00;0.62;2.37;2.17;;;32.10;24.30;;;;;;2276249;56;20773;-67
2023/06/29 02:07:02;0.00;0.00;0.62;0.00;0.00;0.62;2.30;2.03;;;32.10;24.30;;;;;;2233453;62;20952;-63
2023/06/29 02:09:48;0.00;0.00;0.62;0.00;0.00;0.62;2.60;2.20;;;32.10;24.30;;;;;;2236527;62;20454;-64
2023/06/29 02:12:33;0.00;0.00;0.62;0.00;0.00;0.62;2.23;2.03;;;32.10;24.30;;;;;;2232915;62;20422;-63
2023/06/29 02:15:19;0.00;0.00;0.62;0.00;0.00;0.62;2.50;2.30;;;32.10;24.30;;;;;;2233704;62;20398;-63
2023/06/29 02:18:03;0.00;0.00;0.62;0.00;0.00;0.62;2.43;2.13;;;32.10;24.40;;;;;;2233663;62;20952;-64
2023/06/29 02:20:48;0.00;0.00;0.62;0.00;0.00;0.62;2.07;1.73;;;32.10;24.40;;;;;;2232930;62;20391;-63
2023/06/29 02:23:33;0.00;0.00;0.62;0.00;0.00;0.62;3.10;2.17;;;32.10;24.40;;;;;;2236789;62;20394;-63
2023/06/29 02:26:17;0.00;0.00;0.62;0.00;0.00;0.62;2.17;1.90;;;32.10;24.40;;;;;;2236760;62;20442;-63
2023/06/29 02:29:02;0.00;0.00;0.62;0.00;0.00;0.62;2.30;2.10;;;32.00;24.40;;;;;;2235721;62;20425;-64
2023/06/29 02:31:48;0.00;0.00;0.62;0.00;0.00;0.62;2.10;1.90;;;32.00;24.40;;;;;;2236833;61;20439;-64
2023/06/29 02:34:33;0.00;0.00;0.62;0.00;0.00;0.62;2.40;2.10;;;32.10;24.40;;;;;;2234008;62;21059;-63
2023/06/29 02:37:19;0.00;0.00;0.62;0.00;0.00;0.62;2.30;2.10;;;32.10;24.40;;;;;;2234958;62;20365;-63
2023/06/29 02:40:06;0.00;0.00;0.62;0.00;0.00;0.62;3.20;2.13;;;32.00;24.40;;;;;;2234686;62;20410;-64
2023/06/29 02:42:51;0.00;0.00;0.62;0.00;0.00;0.62;3.40;2.00;;;32.10;24.40;;;;;;2237210;62;20810;-64
2023/06/29 02:45:35;0.00;0.00;0.62;0.00;0.00;0.62;2.37;2.17;;;32.00;24.40;;;;;;2234775;62;20398;-63
2023/06/29 02:48:21;0.00;0.00;0.62;0.00;0.00;0.62;2.13;1.90;;;32.00;24.40;;;;;;2233793;62;20398;-63
2023/06/29 02:51:07;0.00;0.00;0.62;0.00;0.00;0.62;2.30;2.10;;;32.00;24.40;;;;;;2236632;62;20370;-63
2023/06/29 02:53:52;0.00;0.00;0.62;0.00;0.00;0.62;3.03;2.30;;;32.00;24.40;;;;;;2234146;62;20394;-63
2023/06/29 02:56:39;0.00;0.00;0.62;0.00;0.00;0.62;2.27;2.07;;;32.00;24.40;;;;;;2236392;62;20367;-64
2023/06/29 02:59:23;0.00;0.00;0.62;0.00;0.00;0.62;2.80;2.30;;;32.00;24.50;;;;;;2233698;62;20374;-63
2023/06/29 03:02:08;0.00;0.00;0.62;0.00;0.00;0.62;3.00;2.60;;;32.00;24.50;;;;;;2237490;62;20876;-63
2023/06/29 03:04:54;0.00;0.00;0.62;0.00;0.00;0.62;2.17;1.97;;;32.00;24.50;;;;;;2233110;62;20793;-63
2023/06/29 03:07:39;0.00;0.00;0.62;0.00;0.00;0.62;2.40;2.20;;;32.00;24.50;;;;;;2234068;62;20406;-62
2023/06/29 03:10:24;0.00;0.00;0.62;0.00;0.00;0.62;2.60;2.40;;;32.00;24.50;;;;;;2233930;62;20366;-61
2023/06/29 03:13:08;0.00;0.00;0.62;0.00;0.00;0.62;2.37;2.17;;;32.00;24.50;;;;;;2236758;62;20425;-62
2023/06/29 03:15:56;0.00;0.00;0.62;0.00;0.00;0.62;2.07;1.87;;;32.00;24.50;;;;;;2237330;62;20366;-61
2023/06/29 03:18:41;0.00;0.00;0.62;0.00;0.00;0.62;2.30;2.10;;;32.00;24.50;;;;;;2236164;62;20900;-64
2023/06/29 03:21:27;0.00;0.00;0.62;0.00;0.00;0.62;2.57;2.37;;;32.00;24.50;;;;;;2237181;62;20421;-63
2023/06/29 03:24:12;0.00;0.00;0.62;0.00;0.00;0.62;2.83;2.60;;;32.00;24.50;;;;;;2237028;62;20445;-63
2023/06/29 03:26:57;0.00;0.00;0.62;0.00;0.00;0.62;2.87;2.40;;;32.00;24.50;;;;;;2236360;62;20478;-63
2023/06/29 03:29:41;0.00;0.00;0.62;0.00;0.00;0.62;2.47;2.27;;;32.00;24.50;;;;;;2236860;62;20370;-63
2023/06/29 03:32:26;0.00;0.00;0.62;0.00;0.00;0.62;2.30;2.10;;;31.90;24.50;;;;;;2237113;62;20433;-63
2023/06/29 03:35:10;0.00;0.00;0.62;0.00;0.00;0.62;2.57;2.30;;;32.00;24.50;;;;;;2236426;62;20969;-63
2023/06/29 03:37:57;0.00;0.00;0.62;0.00;0.00;0.62;2.63;2.43;;;31.90;24.50;;;;;;2237173;62;20361;-63
2023/06/29 03:40:41;0.00;0.00;0.62;0.00;0.00;0.62;2.60;2.40;;;31.90;24.50;;;;;;2237211;62;20374;-64
2023/06/29 03:43:26;0.00;0.00;0.62;0.00;0.00;0.62;2.80;2.50;;;31.90;24.50;;;;;;2236725;62;20433;-63
2023/06/29 03:46:11;0.00;0.00;0.62;0.00;0.00;0.62;2.70;2.50;;;31.90;24.50;;;;;;2236522;62;20949;-63
2023/06/29 03:48:56;0.00;0.00;0.62;0.00;0.00;0.62;3.30;2.37;;;31.90;24.50;;;;;;2235331;62;20811;-63
2023/06/29 03:51:40;0.00;0.00;0.62;0.00;0.00;0.62;2.60;2.40;;;31.90;24.50;;;;;;2236475;62;20399;-63
2023/06/29 03:54:27;0.00;0.00;0.62;0.00;0.00;0.62;2.40;2.20;;;31.90;24.50;;;;;;2236590;62;20790;-63
2023/06/29 03:57:12;0.00;0.00;0.62;0.00;0.00;0.62;2.80;2.60;;;31.90;24.50;;;;;;2235555;62;20398;-61
2023/06/29 03:59:57;0.00;0.00;0.62;0.00;0.00;0.62;2.70;2.50;;;31.90;24.50;;;;;;2236245;62;20401;-62
2023/06/29 04:02:41;0.00;0.00;0.62;0.00;0.00;0.62;2.53;2.33;;;31.90;24.50;;;;;;2236482;62;20491;-65
2023/06/29 04:05:27;0.00;0.00;0.62;0.00;0.00;0.62;2.63;2.43;;;31.90;24.50;;;;;;2236219;62;20371;-61
2023/06/29 04:08:12;0.00;0.00;0.62;0.00;0.00;0.62;3.00;2.57;;;31.90;24.50;;;;;;2236311;62;20469;-64
2023/06/29 04:10:58;0.00;0.00;0.62;0.00;0.00;0.62;2.40;2.20;;;31.90;24.50;;;;;;2235227;62;20925;-64
2023/06/29 04:13:42;0.00;0.00;0.62;0.00;0.00;0.62;2.63;2.43;;;31.90;25.10;;;;;;2236570;62;20449;-62
2023/06/29 04:16:28;0.00;0.00;0.62;0.00;0.00;0.62;3.00;2.57;;;31.90;24.60;;;;;;2236769;62;20824;-61
2023/06/29 04:19:13;0.00;0.00;0.62;0.00;0.00;0.62;2.77;2.57;;;31.90;25.10;;;;;;2235311;62;20378;-61
2023/06/29 04:21:58;0.00;0.00;0.62;0.00;0.00;0.62;2.67;2.47;;;31.90;24.60;;;;;;2236397;62;20394;-61
2023/06/29 04:24:42;0.00;0.00;0.62;0.00;0.00;0.62;2.63;2.43;;;31.90;24.60;;;;;;2236427;62;20969;-61
2023/06/29 04:27:31;0.00;0.00;0.62;0.00;0.00;0.62;2.97;2.47;;;31.80;24.50;;;;;;2235647;62;20394;-62
2023/06/29 04:30:17;0.00;0.00;0.62;0.00;0.00;0.62;2.97;2.50;;;31.90;24.60;;;;;;2236119;62;20418;-62
2023/06/29 04:33:09;0.00;0.00;0.62;0.00;0.00;0.62;3.50;3.20;;;31.80;24.60;;;;;;2235524;62;20397;-61
2023/06/29 04:35:55;0.00;0.00;0.62;0.00;0.00;0.62;3.60;3.30;;;31.90;24.60;;;;;;2236740;62;20446;-61
2023/06/29 04:38:39;0.00;0.00;0.62;0.00;0.00;0.62;3.00;2.50;;;31.90;24.60;;;;;;2233161;62;20422;-63
2023/06/29 04:41:31;0.00;0.00;0.62;0.00;0.00;0.62;3.07;2.63;;;31.90;24.60;;;;;;2235531;62;20379;-62
2023/06/29 04:44:17;0.00;0.00;0.62;0.00;0.00;0.62;3.13;2.90;;;31.90;24.60;;;;;;2236308;62;20427;-62
2023/06/29 04:47:02;0.00;0.00;0.62;0.00;0.00;0.62;3.30;3.00;;;31.90;24.70;;;;;;2236393;62;20395;-62
2023/06/29 04:49:51;0.00;0.00;0.62;0.00;0.00;0.62;3.77;3.17;;;31.90;24.70;;;;;;2235544;62;20452;-67
2023/06/29 04:52:37;0.00;0.00;0.62;0.00;0.00;0.62;3.40;3.10;;;31.90;24.70;;;;;;2250382;56;20387;-61
2023/06/29 04:55:22;0.00;0.00;0.62;0.00;0.00;0.62;4.37;3.77;;;31.90;24.70;;;;;;2225112;62;20890;-57
2023/06/29 04:58:07;0.00;0.00;0.62;0.00;0.00;0.62;3.43;3.13;;;31.90;24.70;;;;;;2224703;62;20368;-62
2023/06/29 05:00:54;0.00;0.00;0.62;0.00;0.00;0.62;3.87;3.57;;;31.90;24.70;;;;;;2224507;62;20372;-62
2023/06/29 05:03:39;0.00;0.00;0.62;0.00;0.00;0.62;4.00;3.60;;;31.90;24.70;;;;;;2223676;62;20393;-61
2023/06/29 05:06:24;0.00;0.00;0.62;0.00;0.00;0.62;4.40;4.00;;;31.90;24.70;;;;;;2224666;62;20369;-64
2023/06/29 05:09:08;0.00;0.00;0.62;0.00;0.00;0.62;3.80;3.33;;;31.90;24.70;;;;;;2224173;62;20792;-60
2023/06/29 05:11:53;0.00;0.00;0.62;0.00;0.00;0.62;3.90;3.60;;;31.90;24.70;;;;;;2224045;62;20377;-62
2023/06/29 05:14:38;0.00;0.00;0.62;0.00;0.00;0.62;3.80;3.37;;;31.90;24.70;;;;;;2224407;62;20389;-61
2023/06/29 05:17:25;0.00;0.00;0.62;0.00;0.00;0.62;4.77;4.23;;;31.90;24.70;;;;;;2223630;62;20405;-62
2023/06/29 05:20:13;0.00;0.00;0.62;0.00;0.00;0.62;4.23;3.83;;;31.90;24.70;;;;;;2224162;62;20462;-63
2023/06/29 05:23:00;0.00;0.00;0.62;0.00;0.00;0.62;4.57;3.43;;;31.80;24.70;;;;;;2224401;62;20393;-60
2023/06/29 05:25:45;0.00;0.00;0.62;0.00;0.00;0.62;4.63;3.93;;;31.80;24.70;;;;;;2223468;62;20385;-62
2023/06/29 05:28:30;0.00;0.00;0.62;0.00;0.00;0.62;4.20;3.83;;;31.80;24.70;;;;;;2223948;62;20524;-61
2023/06/29 05:31:14;0.00;0.00;0.62;0.00;0.00;0.62;4.20;3.80;;;31.80;24.70;;;;;;2224471;62;20381;-62
2023/06/29 05:34:00;0.00;0.00;0.62;0.00;0.00;0.62;4.33;3.93;;;31.80;24.70;;;;;;2223617;62;20437;-62
2023/06/29 05:36:45;0.00;0.00;0.62;0.00;0.00;0.62;4.80;4.13;;;31.80;24.70;;;;;;2224357;62;20429;-62
2023/06/29 05:39:29;0.00;0.00;0.62;0.00;0.00;0.62;4.17;3.70;;;31.80;24.70;;;;;;2223297;62;20377;-63
2023/06/29 05:42:14;0.00;0.00;0.62;0.00;0.00;0.62;4.50;4.10;;;31.80;24.70;;;;;;2224434;62;20356;-61
2023/06/29 05:44:58;0.00;0.00;0.62;0.00;0.00;0.62;4.27;3.93;;;31.80;25.30;;;;;;2224198;62;20420;-62
2023/06/29 05:47:43;0.00;0.00;0.62;0.00;0.00;0.62;5.10;4.60;;;31.80;24.70;;;;;;2223529;62;20465;-61
2023/06/29 05:50:30;0.00;0.00;0.62;0.00;0.00;0.62;4.80;4.30;;;31.80;25.30;;;;;;2224217;62;20414;-60
2023/06/29 05:53:15;0.00;0.00;0.62;0.00;0.00;0.62;5.27;4.37;;;31.80;24.80;;;;;;2224397;62;20992;-60
2023/06/29 05:56:00;0.00;0.00;0.62;0.00;0.00;0.62;4.80;4.40;;;31.80;24.80;;;;;;2223775;62;20376;-63
2023/06/29 05:58:46;0.00;0.00;0.62;0.00;0.00;0.62;4.97;4.47;;;31.90;24.90;;;;;;2224039;62;20448;-63
2023/06/29 06:01:31;0.00;0.00;0.62;0.00;0.00;0.62;4.93;4.53;;;31.80;24.80;;;;;;2223595;62;20417;-64
2023/06/29 06:04:15;0.00;0.00;0.62;0.00;0.00;0.62;4.33;3.93;;;31.90;24.90;;;;;;2224312;62;20989;-64
2023/06/29 06:07:01;0.00;0.00;0.62;0.00;0.00;0.62;4.23;3.83;;;31.80;25.30;;;;;;2223913;62;21121;-64
2023/06/29 06:09:46;0.00;0.00;0.62;0.00;0.00;0.62;4.23;3.83;;;31.80;24.80;;;;;;2223093;62;20916;-62
2023/06/29 06:12:31;0.00;0.00;0.62;0.00;0.00;0.62;4.60;4.20;;;31.80;25.40;;;;;;2224304;62;20942;-61
2023/06/29 06:15:15;0.00;0.00;0.62;0.00;0.00;0.62;6.20;4.70;;;31.80;24.80;;;;;;2224401;62;20892;-63
2023/06/29 06:18:00;0.00;0.00;0.62;0.00;0.00;0.62;5.33;4.17;;;31.80;24.80;;;;;;2223435;62;20369;-62
2023/06/29 06:20:45;0.00;0.00;0.62;0.00;0.00;0.62;5.87;5.17;;;31.80;24.80;;;;;;2224369;62;20412;-60
2023/06/29 06:23:31;0.00;0.00;0.62;0.00;0.00;0.62;5.20;4.80;;;31.80;24.80;;;;;;2224046;62;20786;-62
2023/06/29 06:26:15;0.00;0.00;0.62;0.00;0.00;0.62;4.93;4.40;;;31.80;24.90;;;;;;2224413;62;20405;-61
2023/06/29 06:29:00;0.00;0.00;0.62;0.00;0.00;0.62;5.63;4.50;;;31.80;24.80;;;;;;2223947;62;20414;-62
2023/06/29 06:31:45;0.00;0.00;0.62;0.00;0.00;0.62;5.10;4.60;;;31.80;24.80;;;;;;2223381;62;20381;-63
2023/06/29 06:34:30;0.00;0.00;0.62;0.00;0.00;0.62;4.73;4.30;;;31.80;24.80;;;;;;2224473;62;20421;-61
2023/06/29 06:37:15;0.00;0.00;0.62;0.00;0.00;0.62;4.77;4.10;;;31.80;24.90;;;;;;2224564;62;20362;-66
2023/06/29 06:40:03;0.00;0.00;0.62;0.00;0.00;0.62;4.87;4.47;;;31.90;24.90;;;;;;2223139;62;20369;-67
2023/06/29 06:42:47;0.00;0.00;0.62;0.00;0.00;0.62;4.60;4.10;;;31.90;25.00;;;;;;2224392;62;20972;-63
2023/06/29 06:45:32;0.00;0.00;0.62;0.00;0.00;0.62;4.47;4.07;;;31.80;24.90;;;;;;2224216;62;20414;-64
2023/06/29 06:48:17;0.00;0.00;0.62;0.00;0.00;0.62;5.07;4.57;;;31.90;24.90;;;;;;2220724;62;20405;-62
2023/06/29 06:51:01;0.00;0.00;0.62;0.00;0.00;0.62;4.50;4.10;;;31.80;25.40;;;;;;2224488;62;20821;-61
2023/06/29 06:53:47;0.00;0.00;0.62;0.00;0.00;0.62;5.17;4.67;;;31.80;24.90;;;;;;2223005;62;21057;-63
2023/06/29 06:56:33;0.00;0.00;0.62;0.00;0.00;0.62;4.90;4.50;;;31.80;24.90;;;;;;2224282;62;20445;-61
2023/06/29 06:59:18;0.00;0.00;0.62;0.00;0.00;0.62;4.70;4.30;;;31.90;25.00;;;;;;2223857;62;20373;-62
2023/06/29 07:02:04;0.00;0.00;0.62;0.00;0.00;0.62;5.50;4.50;;;31.80;25.40;;;;;;2223202;62;20425;-62
2023/06/29 07:04:49;0.00;0.00;0.62;0.00;0.00;0.62;4.30;3.80;;;31.80;24.90;;;;;;2224505;62;20778;-62
2023/06/29 07:07:34;0.00;0.00;0.62;0.00;0.00;0.62;4.33;3.93;;;31.80;24.90;;;;;;2224110;62;20408;-62
2023/06/29 07:10:19;0.00;0.00;0.62;0.00;0.00;0.62;4.70;4.30;;;31.90;25.00;;;;;;2223383;62;20465;-62
2023/06/29 07:13:05;0.00;0.00;0.62;0.00;0.00;0.62;5.03;4.53;;;31.90;25.00;;;;;;2224034;62;20848;-62
2023/06/29 07:15:50;0.00;0.00;0.62;0.00;0.00;0.62;4.47;4.07;;;31.80;24.90;;;;;;2223230;62;20377;-61
2023/06/29 07:18:36;0.00;0.00;0.62;0.00;0.00;0.62;4.40;3.70;;;31.90;24.90;;;;;;2223739;62;20408;-63
2023/06/29 07:21:21;0.00;0.00;0.62;0.00;0.00;0.62;4.77;4.37;;;31.80;24.90;;;;;;2224781;62;20736;-62
2023/06/29 07:24:08;0.00;0.00;0.62;0.00;0.00;0.62;4.40;4.00;;;31.80;24.90;;;;;;2223934;62;20795;-63
2023/06/29 07:26:53;0.00;0.00;0.62;0.00;0.00;0.62;4.20;3.80;;;31.80;24.90;;;;;;2224894;62;20868;-63
2023/06/29 07:29:42;0.00;0.00;0.62;0.00;0.00;0.62;4.43;4.03;;;31.80;24.90;;;;;;2223733;62;20420;-61
2023/06/29 07:32:27;0.00;0.00;0.62;0.00;0.00;0.62;4.10;3.80;;;31.80;24.90;;;;;;2224137;62;20781;-60
2023/06/29 07:35:15;0.00;0.00;0.62;0.00;0.00;0.62;4.50;4.07;;;31.80;24.90;;;;;;2224991;62;20823;-63
2023/06/29 07:38:00;0.00;0.00;0.62;0.00;0.00;0.62;4.90;4.40;;;31.80;24.90;;;;;;2224207;62;20384;-61
2023/06/29 07:40:44;0.00;0.00;0.62;0.00;0.00;0.62;6.20;4.00;;;31.80;24.90;;;;;;2224859;62;21160;-62
2023/06/29 07:43:29;0.00;0.00;0.62;0.00;0.00;0.62;5.00;4.50;;;31.80;24.90;;;;;;2224888;62;20485;-62
2023/06/29 07:46:15;0.00;0.00;0.62;0.00;0.00;0.62;3.97;3.67;;;31.90;25.00;;;;;;2223576;62;20780;-64
2023/06/29 07:49:00;0.00;0.00;0.62;0.00;0.00;0.62;4.27;3.90;;;31.80;25.00;;;;;;2224289;62;20365;-63
2023/06/29 07:51:45;0.00;0.00;0.62;0.00;0.00;0.62;3.53;3.20;;;31.90;25.00;;;;;;2225068;62;20634;-63
2023/06/29 07:54:30;0.00;0.00;0.62;0.00;0.00;0.62;5.07;4.57;;;31.80;25.00;;;;;;2224194;62;20392;-63
2023/06/29 07:57:15;0.00;0.00;0.62;0.00;0.00;0.62;4.23;3.90;;;31.90;25.00;;;;;;2224219;62;20800;-62
2023/06/29 08:00:00;0.00;0.00;0.62;0.00;0.00;0.62;4.40;4.00;;;31.80;25.00;;;;;;2223514;62;20896;-63
2023/06/29 08:02:46;0.00;0.00;0.62;0.00;0.00;0.62;5.43;4.30;;;31.90;25.00;;;;;;2224656;62;20445;-63
2023/06/29 08:05:31;0.00;0.00;0.62;0.00;0.00;0.62;4.70;4.13;;;31.80;25.50;;;;;;2224789;62;20413;-63
2023/06/29 08:08:16;0.00;0.00;0.62;0.00;0.00;0.62;3.73;3.43;;;31.90;25.00;;;;;;2223601;62;20461;-64
2023/06/29 08:11:01;0.00;0.00;0.62;0.00;0.00;0.62;4.50;4.10;;;31.90;25.00;;;;;;2224778;62;20475;-66
2023/06/29 08:13:46;0.00;0.00;0.62;0.00;0.00;0.62;4.30;3.90;;;31.90;25.10;;;;;;2224908;62;20388;-63
2023/06/29 08:16:31;0.00;0.00;0.62;0.00;0.00;0.62;4.47;4.07;;;31.90;25.00;;;;;;2223999;62;20426;-63
2023/06/29 08:19:18;0.00;0.00;0.62;0.00;0.00;0.62;5.00;4.50;;;31.90;25.10;;;;;;2224037;62;20425;-62
2023/06/29 08:22:03;0.00;0.00;0.62;0.00;0.00;0.62;4.23;3.60;;;31.90;25.10;;;;;;2224210;62;20408;-64
2023/06/29 08:24:48;0.00;0.00;0.62;0.00;0.00;0.62;3.63;3.33;;;31.90;25.10;;;;;;2224373;62;20919;-63
2023/06/29 08:27:32;0.00;0.00;0.62;0.00;0.00;0.62;3.73;3.33;;;31.80;25.00;;;;;;2224482;62;20393;-63
2023/06/29 08:30:17;0.00;0.00;0.62;0.00;0.00;0.62;4.13;3.67;;;31.90;25.10;;;;;;2223319;62;20461;-63
2023/06/29 08:33:02;0.00;0.00;0.62;0.00;0.00;0.62;4.20;3.80;;;31.90;25.10;;;;;;2224554;62;20396;-66
2023/06/29 08:35:48;0.00;0.00;0.62;0.00;0.00;0.62;4.17;3.50;;;31.90;25.10;;;;;;2224727;62;20418;-63
2023/06/29 08:38:33;0.00;0.00;0.62;0.00;0.00;0.62;4.90;4.07;;;31.90;25.10;;;;;;2223380;62;20382;-62
2023/06/29 08:41:18;0.00;0.00;0.62;0.00;0.00;0.62;3.93;3.53;;;31.90;25.10;;;;;;2224568;62;20369;-63
2023/06/29 08:44:04;0.00;0.00;0.62;0.00;0.00;0.62;4.13;3.47;;;31.90;25.10;;;;;;2224328;62;20393;-62
2023/06/29 08:46:50;0.00;0.00;0.62;0.00;0.00;0.62;4.07;3.67;;;31.90;25.10;;;;;;2224562;62;20426;-62
2023/06/29 08:49:38;0.00;0.00;0.62;0.00;0.00;0.62;4.03;3.63;;;31.90;25.10;;;;;;2224359;62;20702;-63
2023/06/29 08:52:31;0.00;0.00;0.62;0.00;0.00;0.62;4.40;3.60;;;31.90;25.10;;;;;;2223457;62;20454;-63
2023/06/29 08:55:16;0.00;0.00;0.62;0.00;0.00;0.62;3.80;3.50;;;31.90;25.10;;;;;;2224714;62;20766;-63
2023/06/29 08:58:01;0.00;0.00;0.62;0.00;0.00;0.62;4.23;3.83;;;31.90;25.10;;;;;;2224488;62;20419;-63
2023/06/29 09:00:46;0.00;0.00;0.62;0.00;0.00;0.62;3.90;3.53;;;31.90;25.10;;;;;;2223549;62;20393;-63
2023/06/29 09:03:32;0.00;0.00;0.62;0.00;0.00;0.62;3.83;3.50;;;31.90;25.10;;;;;;2224674;62;20445;-64
2023/06/29 09:06:18;0.00;0.00;0.62;0.00;0.00;0.62;4.20;3.47;;;31.90;25.10;;;;;;2224450;62;20449;-63
2023/06/29 09:09:06;0.00;0.00;0.62;0.00;0.00;0.62;4.17;3.70;;;31.90;25.10;;;;;;2224121;62;20425;-62
2023/06/29 09:11:51;0.00;0.00;0.62;0.00;0.00;0.62;4.40;4.00;;;31.90;25.10;;;;;;2224557;62;20381;-67
2023/06/29 09:14:43;0.00;0.00;0.62;0.00;0.00;0.62;4.23;3.80;;;31.90;25.10;;;;;;2223443;62;20438;-64
2023/06/29 09:17:33;0.00;0.00;0.62;0.00;0.00;0.62;4.10;3.70;;;31.90;25.10;;;;;;2224611;62;20851;-61
2023/06/29 09:20:21;0.00;0.00;0.62;0.00;0.00;0.62;4.40;3.70;;;31.90;25.10;;;;;;2223996;62;20459;-63
2023/06/29 09:23:07;0.00;0.00;0.62;0.00;0.00;0.62;4.00;3.60;;;32.00;25.20;;;;;;2223519;62;20424;-63
2023/06/29 09:25:54;0.00;0.00;0.62;0.00;0.00;0.62;4.17;3.77;;;32.00;25.20;;;;;;2224495;62;20404;-63
2023/06/29 09:28:45;0.00;0.00;0.62;0.00;0.00;0.62;4.60;4.20;;;32.00;25.20;;;;;;2223283;62;20441;-63
2023/06/29 09:31:33;0.00;0.00;0.62;0.00;0.00;0.62;4.20;3.80;;;32.00;25.20;;;;;;2224509;62;20409;-62
2023/06/29 09:34:20;0.00;0.00;0.62;0.00;0.00;0.62;4.40;3.70;;;32.00;25.20;;;;;;2224373;62;20477;-64
2023/06/29 09:37:05;0.00;0.00;0.62;0.00;0.00;0.62;4.87;4.33;;;32.00;25.20;;;;;;2223616;62;20503;-64
2023/06/29 09:39:58;0.00;0.00;0.62;0.00;0.00;0.62;3.80;3.40;;;32.00;25.20;;;;;;2224039;62;20377;-64
2023/06/29 09:42:44;0.00;0.00;0.62;0.00;0.00;0.62;4.00;3.60;;;32.00;25.20;;;;;;2223973;62;20384;-63
2023/06/29 09:45:31;0.00;0.00;0.62;0.00;0.00;0.62;4.07;3.67;;;32.00;25.20;;;;;;2223838;62;20467;-63
2023/06/29 09:48:20;0.00;0.00;0.62;0.00;0.00;0.62;4.27;3.87;;;32.00;25.20;;;;;;2224070;62;20445;-64
2023/06/29 09:51:07;0.00;0.00;0.62;0.00;0.00;0.62;4.33;4.00;;;32.00;25.20;;;;;;2223470;62;20980;-63
2023/06/29 09:53:53;0.00;0.00;0.62;0.00;0.00;0.62;4.90;3.77;;;32.00;25.20;;;;;;2224325;62;20809;-63
2023/06/29 09:56:38;0.00;0.00;0.62;0.00;0.00;0.62;4.50;4.10;;;32.00;25.80;;;;;;2224606;62;20429;-63
2023/06/29 09:59:24;0.00;0.00;0.62;0.00;0.00;0.62;4.80;4.30;;;32.00;25.20;;;;;;2223002;62;20373;-64
2023/06/29 10:02:10;0.00;0.00;0.62;0.00;0.00;0.62;4.40;4.00;;;32.00;25.20;;;;;;2224444;62;20941;-62
2023/06/29 10:04:55;0.00;0.00;0.62;0.00;0.00;0.62;4.40;4.00;;;32.00;25.20;;;;;;2224276;62;20414;-64
2023/06/29 10:07:41;0.00;0.00;0.62;0.00;0.00;0.62;4.13;3.73;;;32.00;25.80;;;;;;2223546;62;21012;-64
2023/06/29 10:10:31;0.00;0.00;0.62;0.00;0.00;0.62;4.00;3.60;;;32.00;25.20;;;;;;2223807;62;20404;-63
2023/06/29 10:13:17;0.00;0.00;0.62;0.00;0.00;0.62;4.00;3.60;;;32.00;25.30;;;;;;2220400;62;20393;-63
2023/06/29 10:16:09;0.00;0.00;0.62;0.00;0.00;0.62;4.33;3.93;;;32.00;25.20;;;;;;2224256;62;20386;-63
2023/06/29 10:19:02;0.00;0.00;0.62;0.00;0.00;0.62;4.67;4.20;;;32.10;25.30;;;;;;2224036;62;20377;-63
2023/06/29 10:21:53;0.00;0.00;0.62;0.00;0.00;0.62;3.93;3.53;;;32.00;25.30;;;;;;2223282;62;20417;-63
2023/06/29 10:24:43;0.00;0.00;0.62;0.00;0.00;0.62;4.13;3.73;;;32.00;25.30;;;;;;2224182;62;20388;-63
2023/06/29 10:27:30;0.00;0.00;0.62;0.00;0.00;0.62;4.63;4.17;;;32.00;25.30;;;;;;2224339;62;20405;-63
2023/06/29 10:30:20;0.00;0.00;0.62;0.00;0.00;0.62;4.50;4.10;;;32.10;25.30;;;;;;2223727;62;20397;-63
2023/06/29 10:33:10;0.00;0.00;0.62;0.00;0.00;0.62;4.37;3.63;;;32.10;25.30;;;;;;2224193;62;20485;-66
2023/06/29 10:35:57;0.00;0.00;0.62;0.00;0.00;0.62;4.60;3.93;;;32.10;25.30;;;;;;2224973;62;20381;-64
2023/06/29 10:38:42;0.00;0.00;0.62;0.00;0.00;0.62;4.00;3.60;;;32.10;25.30;;;;;;2225301;62;20867;-63
2023/06/29 10:41:28;0.00;0.00;0.62;0.00;0.00;0.62;4.20;3.47;;;32.10;25.30;;;;;;2225722;62;20369;-64
2023/06/29 10:44:13;0.00;0.00;0.62;0.00;0.00;0.62;4.40;4.00;;;32.10;25.30;;;;;;2224829;62;20377;-64
2023/06/29 10:46:57;0.00;0.00;0.62;0.00;0.00;0.62;3.73;3.43;;;32.10;25.30;;;;;;2225539;62;20880;-62
2023/06/29 10:49:43;0.00;0.00;0.62;0.00;0.00;0.62;4.10;3.70;;;32.10;25.30;;;;;;2225346;62;20373;-62
2023/06/29 10:52:32;0.00;0.00;0.62;0.00;0.00;0.62;4.13;3.77;;;32.10;25.30;;;;;;2225562;62;20400;-63
2023/06/29 10:55:19;0.00;0.00;0.62;0.00;0.00;0.62;5.23;4.73;;;32.10;25.30;;;;;;2226552;62;20400;-63